Time;durP1;ratioP1;P1;durP2;ratioP2;P2;SDS_P1;SDS_P2;PMS_P1;PMS_P2;Temp;Humidity;BMP_temperature;BMP_pressure;BME280_temperature;BME280_humidity;BME280_pressure;Samples;Min_cycle;Max_cycle;Signal;HPM_P1;HPM_P2
2022/04/02 00:01:08;;;;;;;;;;;5.70;99.90;;;;;;5092450;28;19920;-78
2022/04/02 00:03:34;;;;;;;;;;;5.70;99.90;;;;;;5092314;28;19912;-78
2022/04/02 00:06:00;;;;;;;;;;;5.70;99.90;;;;;;5093229;28;19949;-78
2022/04/02 00:08:25;;;;;;;;;;;5.70;99.90;;;;;;5093410;28;20023;-78
2022/04/02 00:10:51;;;;;;;;;;;5.60;99.90;;;;;;5094816;28;19908;-78
2022/04/02 00:13:17;;;;;;;;;;;5.60;99.90;;;;;;5096856;28;19908;-78
2022/04/02 00:15:42;;;;;;;;;;;5.60;99.90;;;;;;5097887;28;19960;-78
2022/04/02 00:18:08;;;;;;;;;;;5.50;99.90;;;;;;5092755;28;20353;-77
2022/04/02 00:20:34;;;;;;;;;;;5.50;99.90;;;;;;5093060;28;19908;-78
2022/04/02 00:25:43;;;;;;;;;;;5.40;99.90;;;;;;5092893;28;19914;-78
2022/04/02 00:28:10;;;;;;;;;;;5.40;99.90;;;;;;5092262;28;19916;-78
2022/04/02 00:30:35;;;;;;;;;;;5.30;99.90;;;;;;5093216;28;20057;-78
2022/04/02 00:33:01;;;;;;;;;;;5.30;99.90;;;;;;5093077;28;19955;-78
2022/04/02 00:35:26;;;;;;;;;;;5.30;99.90;;;;;;5092169;28;19990;-78
2022/04/02 00:37:52;;;;;;;;;;;5.20;99.90;;;;;;5092935;28;19915;-78
2022/04/02 00:40:18;;;;;;;;;;;5.20;99.90;;;;;;5100318;28;19954;-79
2022/04/02 00:42:44;;;;;;;;;;;5.10;99.90;;;;;;5094211;28;20014;-78
2022/04/02 00:45:10;;;;;;;;;;;5.10;99.90;;;;;;5092004;28;19962;-78
2022/04/02 00:47:36;;;;;;;;;;;5.10;99.90;;;;;;5092730;28;19919;-78
2022/04/02 00:50:01;;;;;;;;;;;5.00;99.90;;;;;;5092808;28;19912;-78
2022/04/02 00:52:27;;;;;;;;;;;5.00;99.90;;;;;;5092392;28;19968;-78
2022/04/02 00:54:53;;;;;;;;;;;5.00;99.90;;;;;;5093154;28;19960;-78
2022/04/02 00:57:19;;;;;;;;;;;4.90;99.90;;;;;;5092377;28;20038;-78
2022/04/02 00:59:45;;;;;;;;;;;5.00;99.90;;;;;;5093415;28;19927;-78
2022/04/02 01:02:10;;;;;;;;;;;4.90;99.90;;;;;;5100494;28;20383;-78
2022/04/02 01:04:36;;;;;;;;;;;4.90;99.90;;;;;;5095046;28;19908;-78
2022/04/02 01:07:03;;;;;;;;;;;4.90;99.90;;;;;;5092820;28;19912;-78
2022/04/02 01:09:28;;;;;;;;;;;4.90;99.90;;;;;;5092193;28;20091;-78
2022/04/02 01:11:56;;;;;;;;;;;4.90;99.90;;;;;;5092636;28;20388;-78
2022/04/02 01:14:22;;;;;;;;;;;4.90;99.90;;;;;;5091899;28;19908;-78
2022/04/02 01:16:48;;;;;;;;;;;4.80;99.90;;;;;;5092723;28;19908;-78
2022/04/02 01:19:14;;;;;;;;;;;4.80;99.90;;;;;;5091806;28;19915;-77
2022/04/02 01:21:43;;;;;;;;;;;4.80;99.90;;;;;;5092459;28;19995;-77
2022/04/02 01:24:09;;;;;;;;;;;4.80;99.90;;;;;;5092250;28;19914;-77
2022/04/02 01:26:35;;;;;;;;;;;4.70;99.90;;;;;;5091846;28;20343;-77
2022/04/02 01:29:00;;;;;;;;;;;4.70;99.90;;;;;;5092546;28;19912;-77
2022/04/02 01:31:27;;;;;;;;;;;4.70;99.90;;;;;;5092461;28;19908;-77
2022/04/02 01:33:53;;;;;;;;;;;4.70;99.90;;;;;;5092299;28;19998;-77
2022/04/02 01:36:19;;;;;;;;;;;4.70;99.90;;;;;;5092022;28;19911;-77
2022/04/02 01:38:45;;;;;;;;;;;4.70;99.90;;;;;;5092259;28;20384;-77
2022/04/02 01:41:11;;;;;;;;;;;4.70;99.90;;;;;;5093746;28;19908;-77
2022/04/02 01:43:37;;;;;;;;;;;4.60;99.90;;;;;;5095578;28;19961;-77
2022/04/02 01:46:03;;;;;;;;;;;4.60;99.90;;;;;;5096322;28;20418;-76
2022/04/02 01:48:29;;;;;;;;;;;4.60;99.90;;;;;;5101750;28;19912;-76
2022/04/02 01:50:55;;;;;;;;;;;4.50;99.90;;;;;;5101933;28;20290;-77
2022/04/02 01:53:22;;;;;;;;;;;4.50;99.90;;;;;;5095287;28;19908;-76
2022/04/02 01:55:47;;;;;;;;;;;4.50;99.90;;;;;;5095638;28;19908;-77
2022/04/02 01:58:13;;;;;;;;;;;4.50;99.90;;;;;;5098199;28;19915;-76
2022/04/02 02:00:39;;;;;;;;;;;4.50;99.90;;;;;;5103845;28;19959;-77
2022/04/02 02:03:09;;;;;;;;;;;4.50;99.90;;;;;;5094844;28;21290;-77
2022/04/02 02:05:35;;;;;;;;;;;4.50;99.90;;;;;;5095010;28;19966;-76
2022/04/02 02:08:01;;;;;;;;;;;4.60;99.90;;;;;;5094579;28;19916;-77
2022/04/02 02:10:27;;;;;;;;;;;4.60;99.90;;;;;;5095082;28;19958;-77
2022/04/02 02:12:52;;;;;;;;;;;4.60;99.90;;;;;;5096127;28;20007;-77
2022/04/02 02:15:18;;;;;;;;;;;4.60;99.90;;;;;;5094836;28;19908;-77
2022/04/02 02:17:44;;;;;;;;;;;4.60;99.90;;;;;;5095487;28;20376;-77
2022/04/02 02:20:11;;;;;;;;;;;4.60;99.90;;;;;;5095556;28;19923;-77
2022/04/02 02:22:38;;;;;;;;;;;4.60;99.90;;;;;;5094607;28;19919;-77
2022/04/02 02:25:04;;;;;;;;;;;4.60;99.90;;;;;;5095393;28;19923;-77
2022/04/02 02:27:29;;;;;;;;;;;4.70;99.90;;;;;;5094782;28;19954;-77
2022/04/02 02:29:55;;;;;;;;;;;4.70;99.90;;;;;;5095606;28;19959;-77
2022/04/02 02:32:21;;;;;;;;;;;4.70;99.90;;;;;;5094555;28;19908;-77
2022/04/02 02:37:30;;;;;;;;;;;4.60;99.90;;;;;;5099705;28;19953;-77
2022/04/02 02:39:56;;;;;;;;;;;4.70;99.90;;;;;;5095177;28;19912;-77
2022/04/02 02:42:22;;;;;;;;;;;4.70;99.90;;;;;;5094317;28;19955;-77
2022/04/02 02:44:47;;;;;;;;;;;4.70;99.90;;;;;;5093506;28;19915;-77
2022/04/02 02:47:13;;;;;;;;;;;4.60;99.90;;;;;;5094931;28;20010;-77
2022/04/02 02:49:38;;;;;;;;;;;4.60;99.90;;;;;;5094383;28;20336;-77
2022/04/02 02:52:04;;;;;;;;;;;4.70;99.90;;;;;;5093883;28;19912;-77
2022/04/02 02:54:30;;;;;;;;;;;4.70;99.90;;;;;;5094033;28;19915;-77
2022/04/02 02:56:56;;;;;;;;;;;4.70;99.90;;;;;;5094610;28;19970;-77
2022/04/02 02:59:21;;;;;;;;;;;4.70;99.90;;;;;;5093548;28;19915;-76
2022/04/02 03:01:47;;;;;;;;;;;4.70;99.90;;;;;;5094382;28;19913;-77
2022/04/02 03:04:12;;;;;;;;;;;4.70;99.90;;;;;;5094618;28;19908;-77
2022/04/02 03:06:38;;;;;;;;;;;4.70;99.90;;;;;;5093775;28;19920;-77
2022/04/02 03:09:03;;;;;;;;;;;4.70;99.90;;;;;;5094266;28;19919;-77
2022/04/02 03:11:29;;;;;;;;;;;4.70;99.90;;;;;;5092337;28;19931;-77
2022/04/02 03:13:55;;;;;;;;;;;4.70;99.90;;;;;;5094085;28;19943;-77
2022/04/02 03:16:21;;;;;;;;;;;4.70;99.90;;;;;;5105292;28;20311;-76
2022/04/02 03:18:47;;;;;;;;;;;4.70;99.90;;;;;;5110243;28;19909;-78
2022/04/02 03:21:12;;;;;;;;;;;4.80;99.90;;;;;;5104286;28;20015;-77
2022/04/02 03:23:38;;;;;;;;;;;4.80;99.90;;;;;;5098061;28;19935;-76
2022/04/02 03:26:04;;;;;;;;;;;4.90;99.90;;;;;;5094157;28;20273;-76
2022/04/02 03:28:29;;;;;;;;;;;4.90;99.90;;;;;;5093533;28;20353;-77
2022/04/02 03:30:55;;;;;;;;;;;4.90;99.90;;;;;;5094074;28;20139;-77
2022/04/02 03:33:20;;;;;;;;;;;4.90;99.90;;;;;;5093563;28;19938;-76
2022/04/02 03:35:46;;;;;;;;;;;4.90;99.90;;;;;;5093759;28;19908;-77
2022/04/02 03:38:12;;;;;;;;;;;4.90;99.90;;;;;;5092998;28;19908;-77
2022/04/02 03:40:37;;;;;;;;;;;4.90;99.90;;;;;;5093475;28;20380;-77
2022/04/02 03:43:04;;;;;;;;;;;4.90;99.90;;;;;;5094000;28;19908;-76
2022/04/02 03:45:30;;;;;;;;;;;4.90;99.90;;;;;;5092963;28;20428;-76
2022/04/02 03:47:57;;;;;;;;;;;5.00;99.90;;;;;;5093894;28;20029;-77
2022/04/02 03:50:22;;;;;;;;;;;5.00;99.90;;;;;;5092153;28;19912;-76
2022/04/02 03:52:48;;;;;;;;;;;5.00;99.90;;;;;;5093327;28;20350;-76
2022/04/02 03:55:14;;;;;;;;;;;5.00;99.90;;;;;;5093749;28;19908;-77
2022/04/02 03:57:39;;;;;;;;;;;5.00;99.90;;;;;;5093054;28;19908;-76
2022/04/02 04:00:06;;;;;;;;;;;5.00;99.90;;;;;;5093492;28;19947;-77
2022/04/02 04:02:32;;;;;;;;;;;5.00;99.90;;;;;;5092771;28;20384;-77
2022/04/02 04:04:59;;;;;;;;;;;4.90;99.90;;;;;;5093277;28;19915;-77
2022/04/02 04:07:25;;;;;;;;;;;5.00;99.90;;;;;;5099391;28;19919;-76
2022/04/02 04:09:50;;;;;;;;;;;5.00;99.90;;;;;;5097459;28;19965;-77
2022/04/02 04:12:17;;;;;;;;;;;5.00;99.90;;;;;;5093496;28;19908;-77
2022/04/02 04:14:46;;;;;;;;;;;5.00;99.90;;;;;;5092813;28;19912;-77
2022/04/02 04:17:11;;;;;;;;;;;5.00;99.90;;;;;;5093214;28;19917;-77
2022/04/02 04:19:37;;;;;;;;;;;5.00;99.90;;;;;;5092658;28;19912;-77
2022/04/02 04:22:03;;;;;;;;;;;5.00;99.90;;;;;;5093299;28;19912;-77
2022/04/02 04:24:30;;;;;;;;;;;5.00;99.90;;;;;;5092631;28;19960;-77
2022/04/02 04:26:55;;;;;;;;;;;5.00;99.90;;;;;;5093094;28;19942;-77
2022/04/02 04:29:21;;;;;;;;;;;5.10;99.90;;;;;;5092897;28;19912;-77
2022/04/02 04:31:46;;;;;;;;;;;5.00;99.90;;;;;;5092388;28;19912;-77
2022/04/02 04:34:12;;;;;;;;;;;5.10;99.90;;;;;;5092876;28;20353;-77
2022/04/02 04:36:38;;;;;;;;;;;5.10;99.90;;;;;;5102518;28;19972;-78
2022/04/02 04:39:04;;;;;;;;;;;5.00;99.90;;;;;;5102467;28;19962;-77
2022/04/02 04:41:30;;;;;;;;;;;5.10;99.90;;;;;;5091014;28;20268;-77
2022/04/02 04:43:56;;;;;;;;;;;5.00;99.90;;;;;;5093037;28;19908;-77
2022/04/02 04:46:21;;;;;;;;;;;5.00;99.90;;;;;;5092671;28;19912;-77
2022/04/02 04:48:47;;;;;;;;;;;5.10;99.90;;;;;;5092112;28;19916;-78
2022/04/02 04:51:13;;;;;;;;;;;5.00;99.90;;;;;;5093531;28;19951;-78
2022/04/02 04:53:39;;;;;;;;;;;5.00;99.90;;;;;;5101398;28;19969;-78
2022/04/02 04:56:05;;;;;;;;;;;5.10;99.90;;;;;;5094670;28;19919;-78
2022/04/02 04:58:31;;;;;;;;;;;5.10;99.90;;;;;;5092228;28;19909;-77
2022/04/02 05:00:57;;;;;;;;;;;5.10;99.90;;;;;;5092880;28;20261;-78
2022/04/02 05:03:23;;;;;;;;;;;5.10;99.90;;;;;;5092842;28;20353;-78
2022/04/02 05:05:48;;;;;;;;;;;5.10;99.90;;;;;;5092296;28;19966;-78
2022/04/02 05:08:14;;;;;;;;;;;5.10;99.90;;;;;;5092445;28;19935;-78
2022/04/02 05:10:43;;;;;;;;;;;5.10;99.90;;;;;;5092348;28;19912;-78
2022/04/02 05:13:10;;;;;;;;;;;5.10;99.90;;;;;;5092503;28;20426;-78
2022/04/02 05:15:35;;;;;;;;;;;5.10;99.90;;;;;;5092805;28;20409;-77
2022/04/02 05:18:02;;;;;;;;;;;5.20;99.90;;;;;;5096718;28;20006;-77
2022/04/02 05:20:27;;;;;;;;;;;5.10;99.90;;;;;;5096501;28;19943;-78
2022/04/02 05:22:53;;;;;;;;;;;5.10;99.90;;;;;;5096279;28;19981;-78
2022/04/02 05:25:19;;;;;;;;;;;5.20;99.90;;;;;;5096496;28;19958;-78
2022/04/02 05:27:44;;;;;;;;;;;5.20;99.90;;;;;;5095627;28;19916;-78
2022/04/02 05:30:11;;;;;;;;;;;5.20;99.90;;;;;;5096231;28;19935;-78
2022/04/02 05:32:37;;;;;;;;;;;5.20;99.90;;;;;;5095641;28;19912;-77
2022/04/02 05:35:03;;;;;;;;;;;5.20;99.90;;;;;;5096320;28;20319;-78
2022/04/02 05:37:29;;;;;;;;;;;5.20;99.90;;;;;;5099439;28;20002;-77
2022/04/02 05:39:54;;;;;;;;;;;5.20;99.90;;;;;;5105486;28;19943;-77
2022/04/02 05:42:21;;;;;;;;;;;5.20;99.90;;;;;;5096268;28;20238;-77
2022/04/02 05:44:47;;;;;;;;;;;5.20;99.90;;;;;;5095626;28;19912;-77
2022/04/02 05:47:12;;;;;;;;;;;5.20;99.90;;;;;;5095883;28;20015;-77
2022/04/02 05:49:38;;;;;;;;;;;5.20;99.90;;;;;;5095571;28;19912;-77
2022/04/02 05:52:04;;;;;;;;;;;5.20;99.90;;;;;;5096244;28;19961;-78
2022/04/02 05:54:30;;;;;;;;;;;5.20;99.90;;;;;;5095754;28;19995;-77
2022/04/02 05:56:56;;;;;;;;;;;5.20;99.90;;;;;;5095218;28;20003;-77
2022/04/02 05:59:22;;;;;;;;;;;5.20;99.90;;;;;;5095679;28;19959;-77
2022/04/02 06:01:48;;;;;;;;;;;5.20;99.90;;;;;;5095169;28;19908;-77
2022/04/02 06:04:14;;;;;;;;;;;5.20;99.90;;;;;;5095723;28;19908;-78
2022/04/02 06:06:40;;;;;;;;;;;5.20;99.90;;;;;;5094657;28;19919;-77
2022/04/02 06:09:05;;;;;;;;;;;5.20;99.90;;;;;;5095574;28;19912;-78
2022/04/02 06:11:31;;;;;;;;;;;5.20;99.90;;;;;;5095452;28;19908;-78
2022/04/02 06:13:57;;;;;;;;;;;5.20;99.90;;;;;;5094913;28;19915;-78
2022/04/02 06:16:23;;;;;;;;;;;5.20;99.90;;;;;;5095601;28;19915;-77
2022/04/02 06:18:49;;;;;;;;;;;5.10;99.90;;;;;;5094902;28;19915;-77
2022/04/02 06:21:15;;;;;;;;;;;5.10;99.90;;;;;;5095453;28;19912;-77
2022/04/02 06:23:41;;;;;;;;;;;5.10;99.90;;;;;;5103439;28;19940;-77
2022/04/02 06:26:06;;;;;;;;;;;5.20;99.90;;;;;;5107994;28;19915;-78
2022/04/02 06:28:32;;;;;;;;;;;5.20;99.90;;;;;;5095679;28;19912;-77
2022/04/02 06:30:57;;;;;;;;;;;5.20;99.90;;;;;;5094749;28;20369;-77
2022/04/02 06:33:23;;;;;;;;;;;5.10;99.90;;;;;;5094909;28;19964;-78
2022/04/02 06:35:48;;;;;;;;;;;5.20;99.90;;;;;;5094683;28;19909;-78
2022/04/02 06:38:14;;;;;;;;;;;5.20;99.90;;;;;;5094862;28;19919;-78
2022/04/02 06:40:40;;;;;;;;;;;5.20;99.90;;;;;;5094579;28;19908;-77
2022/04/02 06:43:06;;;;;;;;;;;5.20;99.90;;;;;;5094723;28;19908;-78
2022/04/02 06:45:31;;;;;;;;;;;5.20;99.90;;;;;;5094973;28;19909;-79
2022/04/02 06:47:57;;;;;;;;;;;5.20;99.90;;;;;;5094099;28;20272;-79
2022/04/02 06:50:23;;;;;;;;;;;5.20;99.90;;;;;;5094354;28;19912;-77
2022/04/02 06:52:48;;;;;;;;;;;5.20;99.90;;;;;;5093958;28;19947;-76
2022/04/02 06:55:15;;;;;;;;;;;5.30;99.90;;;;;;5094779;28;20130;-77
2022/04/02 06:57:42;;;;;;;;;;;5.30;99.90;;;;;;5093702;28;19912;-76
2022/04/02 07:00:08;;;;;;;;;;;5.30;99.90;;;;;;5094089;28;20011;-77
2022/04/02 07:02:33;;;;;;;;;;;5.30;99.90;;;;;;5094072;28;19952;-77
2022/04/02 07:04:59;;;;;;;;;;;5.30;99.90;;;;;;5093657;28;19934;-77
2022/04/02 07:07:24;;;;;;;;;;;5.40;99.90;;;;;;5094823;28;19916;-78
2022/04/02 07:09:50;;;;;;;;;;;5.40;99.90;;;;;;5098403;28;19958;-78
2022/04/02 07:12:15;;;;;;;;;;;5.40;99.90;;;;;;5094543;28;19955;-78
2022/04/02 07:14:41;;;;;;;;;;;5.40;99.90;;;;;;5093300;28;20261;-77
2022/04/02 07:17:07;;;;;;;;;;;5.40;99.90;;;;;;5094179;28;19908;-77
2022/04/02 07:19:33;;;;;;;;;;;5.40;99.90;;;;;;5093350;28;19919;-78
2022/04/02 07:21:59;;;;;;;;;;;5.40;99.90;;;;;;5093501;28;20107;-78
2022/04/02 07:24:25;;;;;;;;;;;5.40;99.90;;;;;;5094053;28;19913;-78
2022/04/02 07:26:51;;;;;;;;;;;5.40;99.90;;;;;;5093660;28;19912;-80
2022/04/02 07:29:17;;;;;;;;;;;5.40;99.90;;;;;;5093724;28;19912;-82
2022/04/02 07:31:45;;;;;;;;;;;5.40;99.90;;;;;;5092296;28;20313;-83
2022/04/02 07:34:11;;;;;;;;;;;5.50;99.90;;;;;;5092808;28;19908;-83
2022/04/02 07:36:56;;;;;;;;;;;5.50;99.90;;;;;;5092509;28;19908;-85
2022/04/02 07:39:26;;;;;;;;;;;5.50;99.90;;;;;;5093307;28;19963;-82
2022/04/02 07:41:52;;;;;;;;;;;5.60;99.90;;;;;;5096427;28;20357;-80
2022/04/02 07:44:17;;;;;;;;;;;5.70;99.90;;;;;;5100895;28;19908;-78
2022/04/02 07:46:43;;;;;;;;;;;5.70;99.90;;;;;;5093013;28;20025;-77
2022/04/02 07:49:11;;;;;;;;;;;5.80;99.90;;;;;;5093274;28;19912;-77
2022/04/02 07:51:38;;;;;;;;;;;5.80;99.90;;;;;;5093581;28;20413;-77
2022/04/02 07:54:04;;;;;;;;;;;5.90;99.90;;;;;;5092922;28;19915;-77
2022/04/02 07:56:30;;;;;;;;;;;6.00;99.90;;;;;;5095651;28;19908;-77
2022/04/02 07:59:00;;;;;;;;;;;6.00;99.90;;;;;;5095355;28;19908;-77
2022/04/02 08:01:26;;;;;;;;;;;6.00;99.90;;;;;;5093357;28;19927;-77
2022/04/02 08:03:52;;;;;;;;;;;6.10;99.90;;;;;;5092608;28;19908;-77
2022/04/02 08:06:19;;;;;;;;;;;6.10;99.90;;;;;;5093143;28;20273;-76
2022/04/02 08:08:45;;;;;;;;;;;6.20;99.90;;;;;;5092581;28;19912;-77
2022/04/02 08:11:11;;;;;;;;;;;6.20;99.90;;;;;;5092846;28;19908;-77
2022/04/02 08:13:38;;;;;;;;;;;6.20;99.90;;;;;;5092844;28;19940;-76
2022/04/02 08:16:03;;;;;;;;;;;6.30;99.90;;;;;;5092534;28;19912;-76
2022/04/02 08:18:29;;;;;;;;;;;6.40;99.90;;;;;;5092996;28;20285;-76
2022/04/02 08:20:55;;;;;;;;;;;6.40;99.90;;;;;;5092666;28;19997;-76
2022/04/02 08:23:21;;;;;;;;;;;6.50;99.90;;;;;;5092885;28;20248;-76
2022/04/02 08:25:49;;;;;;;;;;;6.50;99.90;;;;;;5092286;28;19916;-76
2022/04/02 08:28:22;;;;;;;;;;;6.50;99.90;;;;;;5092518;28;20288;-76
2022/04/02 08:30:48;;;;;;;;;;;6.50;99.90;;;;;;5092186;28;19912;-76
2022/04/02 08:33:14;;;;;;;;;;;6.50;99.90;;;;;;5092575;28;19908;-76
2022/04/02 08:35:49;;;;;;;;;;;6.50;99.90;;;;;;5092801;28;20006;-76
2022/04/02 08:38:23;;;;;;;;;;;6.60;99.90;;;;;;5091340;28;20546;-76
2022/04/02 08:41:03;;;;;;;;;;;6.80;99.90;;;;;;5092130;28;19958;-76
2022/04/02 08:43:48;;;;;;;;;;;6.80;99.90;;;;;;5092485;28;19908;-76
2022/04/02 08:46:32;;;;;;;;;;;6.80;99.90;;;;;;5092721;28;19954;-76
2022/04/02 08:48:58;;;;;;;;;;;6.90;99.90;;;;;;5091767;28;20022;-76
2022/04/02 08:51:44;;;;;;;;;;;6.90;99.90;;;;;;5094981;28;19919;-76
2022/04/02 08:54:19;;;;;;;;;;;7.00;99.90;;;;;;5096649;28;19973;-76
2022/04/02 08:56:47;;;;;;;;;;;7.00;99.90;;;;;;5096760;28;20249;-76
2022/04/02 08:59:21;;;;;;;;;;;7.10;99.90;;;;;;5096660;28;20262;-77
2022/04/02 09:01:46;;;;;;;;;;;6.90;99.90;;;;;;5095151;28;19920;-76
2022/04/02 09:04:24;;;;;;;;;;;6.90;99.90;;;;;;5096204;28;19915;-76
2022/04/02 09:06:57;;;;;;;;;;;6.80;99.90;;;;;;5096052;28;19912;-76
2022/04/02 09:09:22;;;;;;;;;;;6.80;99.90;;;;;;5095545;28;19970;-76
2022/04/02 09:12:00;;;;;;;;;;;6.80;99.90;;;;;;5096343;28;19948;-76
2022/04/02 09:14:52;;;;;;;;;;;6.80;99.90;;;;;;5096458;28;20365;-76
2022/04/02 09:17:36;;;;;;;;;;;6.80;99.90;;;;;;5087276;28;19947;-76
2022/04/02 09:20:31;;;;;;;;;;;6.90;99.90;;;;;;5095809;28;20377;-76
2022/04/02 09:23:07;;;;;;;;;;;7.20;99.90;;;;;;5085561;28;19958;-76
2022/04/02 09:25:42;;;;;;;;;;;7.40;99.90;;;;;;5095932;28;19912;-76
2022/04/02 09:28:08;;;;;;;;;;;7.70;99.90;;;;;;5095542;28;19920;-76
2022/04/02 09:30:43;;;;;;;;;;;7.80;99.90;;;;;;5096140;28;19912;-78
2022/04/02 09:33:27;;;;;;;;;;;7.80;99.90;;;;;;5095546;28;20647;-77
2022/04/02 09:36:07;;;;;;;;;;;7.80;99.90;;;;;;5095350;28;20061;-76
2022/04/02 09:38:33;;;;;;;;;;;7.90;99.90;;;;;;5095740;28;19909;-76
2022/04/02 09:41:08;;;;;;;;;;;8.00;99.90;;;;;;5095614;28;20258;-77
2022/04/02 09:43:37;;;;;;;;;;;8.00;99.90;;;;;;5095764;28;20027;-76
2022/04/02 09:46:12;;;;;;;;;;;7.90;99.90;;;;;;5095108;28;20013;-76
2022/04/02 09:49:00;;;;;;;;;;;7.90;99.90;;;;;;5095568;28;20420;-76
2022/04/02 09:51:31;;;;;;;;;;;7.80;99.90;;;;;;5092252;28;20395;-76
2022/04/02 09:54:14;;;;;;;;;;;7.80;99.90;;;;;;5095183;28;19915;-76
2022/04/02 09:56:40;;;;;;;;;;;7.80;99.90;;;;;;5095706;28;19908;-76
2022/04/02 09:59:12;;;;;;;;;;;7.80;99.90;;;;;;5095275;28;19944;-76
2022/04/02 10:01:42;;;;;;;;;;;7.90;99.90;;;;;;5095658;28;19920;-76
2022/04/02 10:04:31;;;;;;;;;;;8.00;99.90;;;;;;5094531;28;19915;-75
2022/04/02 10:06:57;;;;;;;;;;;8.10;99.90;;;;;;5091130;28;20452;-75
2022/04/02 10:09:27;;;;;;;;;;;8.10;99.90;;;;;;5094794;28;19912;-75
2022/04/02 10:11:54;;;;;;;;;;;8.20;99.90;;;;;;5096080;28;19908;-78
2022/04/02 10:14:22;;;;;;;;;;;8.20;99.90;;;;;;5095655;28;19961;-75
2022/04/02 10:17:01;;;;;;;;;;;8.20;99.90;;;;;;5095281;28;19908;-76
2022/04/02 10:19:28;;;;;;;;;;;8.20;99.90;;;;;;5095206;28;20341;-76
2022/04/02 10:21:55;;;;;;;;;;;8.30;99.90;;;;;;5094607;28;19916;-76
2022/04/02 10:24:25;;;;;;;;;;;8.40;99.90;;;;;;5093822;28;19908;-76
2022/04/02 10:26:52;;;;;;;;;;;8.70;99.90;;;;;;5095044;28;19994;-76
2022/04/02 10:29:23;;;;;;;;;;;8.80;99.90;;;;;;5094548;28;19957;-76
2022/04/02 10:32:02;;;;;;;;;;;9.00;99.90;;;;;;5094750;28;19912;-77
2022/04/02 10:34:39;;;;;;;;;;;9.00;99.90;;;;;;5094469;28;20253;-76
2022/04/02 10:37:18;;;;;;;;;;;8.90;99.90;;;;;;5093950;28;20373;-77
2022/04/02 10:39:53;;;;;;;;;;;8.70;99.90;;;;;;5094886;28;19908;-77
2022/04/02 10:42:21;;;;;;;;;;;8.60;99.90;;;;;;5094706;28;19948;-77
2022/04/02 10:44:54;;;;;;;;;;;8.60;99.90;;;;;;5094486;28;19908;-77
2022/04/02 10:47:21;;;;;;;;;;;8.50;99.90;;;;;;5094679;28;19912;-76
2022/04/02 10:49:49;;;;;;;;;;;8.50;99.90;;;;;;5094117;28;19912;-76
2022/04/02 10:52:15;;;;;;;;;;;8.60;99.90;;;;;;5093896;28;19959;-77
2022/04/02 10:54:41;;;;;;;;;;;8.70;99.90;;;;;;5094612;28;20254;-76
2022/04/02 10:57:06;;;;;;;;;;;8.80;99.90;;;;;;5093704;28;19908;-77
2022/04/02 10:59:36;;;;;;;;;;;8.90;99.90;;;;;;5094265;28;19950;-78
2022/04/02 11:02:02;;;;;;;;;;;8.90;99.90;;;;;;5092441;28;20035;-78
2022/04/02 11:04:47;;;;;;;;;;;8.80;99.90;;;;;;5094375;28;20341;-77
2022/04/02 11:07:25;;;;;;;;;;;8.70;99.90;;;;;;5093207;28;19919;-77
2022/04/02 11:09:52;;;;;;;;;;;8.60;99.90;;;;;;5094120;28;20353;-77
2022/04/02 11:12:19;;;;;;;;;;;8.60;99.90;;;;;;5093701;28;20450;-76
2022/04/02 11:14:46;;;;;;;;;;;8.70;99.90;;;;;;5092820;28;19912;-76
2022/04/02 11:17:27;;;;;;;;;;;8.70;99.90;;;;;;5093185;28;19908;-76
2022/04/02 11:20:00;;;;;;;;;;;8.90;99.90;;;;;;5093430;28;20330;-76
2022/04/02 11:22:31;;;;;;;;;;;8.90;99.90;;;;;;5093212;28;19915;-77
2022/04/02 11:25:03;;;;;;;;;;;8.90;99.90;;;;;;5091564;28;19947;-76
2022/04/02 11:27:29;;;;;;;;;;;8.80;99.90;;;;;;5093348;28;19912;-76
2022/04/02 11:30:00;;;;;;;;;;;8.70;99.90;;;;;;5093285;28;19974;-76
2022/04/02 11:32:25;;;;;;;;;;;8.60;99.90;;;;;;5093466;28;19960;-76
2022/04/02 11:34:52;;;;;;;;;;;8.50;99.90;;;;;;5093756;28;20378;-79
2022/04/02 11:37:21;;;;;;;;;;;8.40;99.90;;;;;;5092909;28;20262;-76
2022/04/02 11:39:50;;;;;;;;;;;8.40;99.90;;;;;;5093136;28;20002;-76
2022/04/02 11:42:17;;;;;;;;;;;8.40;99.90;;;;;;5092370;28;19908;-76
2022/04/02 11:44:49;;;;;;;;;;;8.30;99.90;;;;;;5093188;28;19908;-76
2022/04/02 11:47:24;;;;;;;;;;;8.30;99.90;;;;;;5096263;28;19912;-75
2022/04/02 11:49:51;;;;;;;;;;;8.40;99.90;;;;;;5097519;28;19955;-76
2022/04/02 11:52:16;;;;;;;;;;;8.50;99.90;;;;;;5091147;28;19912;-75
2022/04/02 11:54:58;;;;;;;;;;;8.70;99.90;;;;;;5092793;28;19995;-75
2022/04/02 11:57:23;;;;;;;;;;;9.00;99.90;;;;;;5074897;28;20266;-75
2022/04/02 11:59:53;;;;;;;;;;;9.20;99.90;;;;;;5092794;28;19916;-75
2022/04/02 12:02:35;;;;;;;;;;;9.40;99.90;;;;;;5092314;28;19987;-76
2022/04/02 12:05:00;;;;;;;;;;;9.40;99.90;;;;;;5092118;28;19908;-75
2022/04/02 12:07:37;;;;;;;;;;;9.40;99.90;;;;;;5092417;28;19918;-75
2022/04/02 12:10:02;;;;;;;;;;;9.30;99.90;;;;;;5091852;28;19957;-75
2022/04/02 12:12:28;;;;;;;;;;;9.30;99.90;;;;;;5093021;28;19908;-75
2022/04/02 12:14:58;;;;;;;;;;;9.20;99.90;;;;;;5092733;28;19912;-75
2022/04/02 12:17:31;;;;;;;;;;;9.20;99.90;;;;;;5092281;28;19919;-75
2022/04/02 12:19:57;;;;;;;;;;;9.30;99.90;;;;;;5092095;28;19908;-75
2022/04/02 12:22:27;;;;;;;;;;;9.40;99.90;;;;;;5092244;28;19915;-75
2022/04/02 12:24:56;;;;;;;;;;;9.60;99.90;;;;;;5092267;28;19912;-77
2022/04/02 12:27:23;;;;;;;;;;;9.70;99.90;;;;;;5091955;28;19916;-76
2022/04/02 12:29:50;;;;;;;;;;;9.80;99.90;;;;;;5092520;28;19970;-77
2022/04/02 12:32:31;;;;;;;;;;;9.80;99.90;;;;;;5091605;28;19938;-77
2022/04/02 12:34:58;;;;;;;;;;;9.70;99.90;;;;;;5092027;28;19984;-76
2022/04/02 12:37:27;;;;;;;;;;;9.50;99.90;;;;;;5092262;28;19916;-76
2022/04/02 12:39:52;;;;;;;;;;;9.30;99.90;;;;;;5103357;28;19908;-76
2022/04/02 12:42:38;;;;;;;;;;;9.20;99.90;;;;;;5095694;28;19908;-76
2022/04/02 12:45:04;;;;;;;;;;;9.20;99.90;;;;;;5089812;28;19909;-76
2022/04/02 12:47:31;;;;;;;;;;;9.40;99.90;;;;;;5092016;28;19912;-76
2022/04/02 12:50:08;;;;;;;;;;;9.60;99.90;;;;;;5091891;28;19916;-76
2022/04/02 12:52:42;;;;;;;;;;;9.70;99.90;;;;;;5093856;28;20018;-77
2022/04/02 12:55:08;;;;;;;;;;;9.60;99.90;;;;;;5092348;28;20269;-76
2022/04/02 12:57:34;;;;;;;;;;;9.50;99.90;;;;;;5092112;28;19998;-76
2022/04/02 13:00:00;;;;;;;;;;;9.30;99.90;;;;;;5091234;28;20380;-76
2022/04/02 13:02:29;;;;;;;;;;;9.30;99.90;;;;;;5090805;28;19916;-76
2022/04/02 13:04:55;;;;;;;;;;;9.20;99.90;;;;;;5090712;28;19915;-76
2022/04/02 13:07:21;;;;;;;;;;;9.40;99.90;;;;;;5091076;28;19920;-76
2022/04/02 13:09:51;;;;;;;;;;;9.70;99.90;;;;;;5091262;28;20407;-76
2022/04/02 13:12:21;;;;;;;;;;;9.80;99.90;;;;;;5089432;28;19960;-76
2022/04/02 13:14:53;;;;;;;;;;;9.50;99.90;;;;;;5091568;28;19908;-76
2022/04/02 13:17:19;;;;;;;;;;;9.10;99.90;;;;;;5090740;28;19919;-76
2022/04/02 13:22:41;;;;;;;;;;;8.80;99.90;;;;;;5091660;28;19971;-76
2022/04/02 13:25:17;;;;;;;;;;;8.60;99.90;;;;;;5091270;28;20285;-76
2022/04/02 13:27:46;;;;;;;;;;;8.40;99.90;;;;;;5091655;28;19912;-76
2022/04/02 13:30:13;;;;;;;;;;;8.60;99.90;;;;;;5091017;28;19916;-76
2022/04/02 13:32:51;;;;;;;;;;;8.80;99.90;;;;;;5091414;28;19908;-76
2022/04/02 13:35:22;;;;;;;;;;;9.10;99.90;;;;;;5090944;28;20131;-76
2022/04/02 13:37:48;;;;;;;;;;;9.20;99.90;;;;;;5094229;28;19908;-76
2022/04/02 13:40:17;;;;;;;;;;;9.40;99.90;;;;;;5094320;28;20367;-76
2022/04/02 13:42:50;;;;;;;;;;;9.50;99.90;;;;;;5095162;28;19961;-76
2022/04/02 13:45:16;;;;;;;;;;;9.60;99.90;;;;;;5094402;28;20357;-76
2022/04/02 13:47:43;;;;;;;;;;;9.60;99.90;;;;;;5093865;28;20359;-76
2022/04/02 13:50:10;;;;;;;;;;;9.70;99.90;;;;;;5094607;28;19912;-76
2022/04/02 13:52:37;;;;;;;;;;;9.70;99.90;;;;;;5094500;28;20360;-76
2022/04/02 13:55:07;;;;;;;;;;;9.60;99.90;;;;;;5094171;28;19912;-76
2022/04/02 13:57:34;;;;;;;;;;;9.70;99.90;;;;;;5095102;28;19999;-76
2022/04/02 14:00:06;;;;;;;;;;;9.50;99.90;;;;;;5094240;28;19927;-75
2022/04/02 14:02:32;;;;;;;;;;;9.50;99.90;;;;;;5094846;28;20337;-76
2022/04/02 14:05:03;;;;;;;;;;;9.30;99.90;;;;;;5094911;28;19953;-76
2022/04/02 14:07:34;;;;;;;;;;;9.10;99.90;;;;;;5095509;28;20364;-77
2022/04/02 14:10:12;;;;;;;;;;;9.30;99.90;;;;;;5094458;28;19912;-76
2022/04/02 14:12:41;;;;;;;;;;;9.40;99.90;;;;;;5094851;28;19909;-77
2022/04/02 14:15:11;;;;;;;;;;;9.40;99.90;;;;;;5094107;28;19908;-76
2022/04/02 14:17:44;;;;;;;;;;;9.30;99.90;;;;;;5094768;28;19962;-76
2022/04/02 14:20:11;;;;;;;;;;;9.10;99.90;;;;;;5094271;28;19908;-76
2022/04/02 14:22:40;;;;;;;;;;;9.00;99.90;;;;;;5094378;28;19999;-76
2022/04/02 14:25:24;;;;;;;;;;;9.10;99.90;;;;;;5094092;28;19923;-75
2022/04/02 14:27:55;;;;;;;;;;;9.10;99.90;;;;;;5094469;28;19934;-76
2022/04/02 14:30:21;;;;;;;;;;;9.00;99.90;;;;;;5093495;28;19920;-76
2022/04/02 14:32:53;;;;;;;;;;;9.00;99.90;;;;;;5094424;28;20353;-76
2022/04/02 14:35:38;;;;;;;;;;;8.60;99.90;;;;;;5093395;28;20653;-76
2022/04/02 14:38:22;;;;;;;;;;;8.60;99.90;;;;;;5093205;28;19908;-76
2022/04/02 14:41:08;;;;;;;;;;;8.70;99.90;;;;;;5094299;28;19908;-76
2022/04/02 14:43:53;;;;;;;;;;;8.90;99.90;;;;;;5094172;28;19954;-76
2022/04/02 14:46:37;;;;;;;;;;;9.10;99.90;;;;;;5093465;28;20335;-76